Time;durP1;ratioP1;P1;durP2;ratioP2;P2;SDS_P1;SDS_P2;PMS_P1;PMS_P2;Temp;Humidity;BMP_temperature;BMP_pressure;BME280_temperature;BME280_humidity;BME280_pressure;Samples;Min_cycle;Max_cycle;Signal;HPM_P1;HPM_P2
2024/01/20 00:00:29;;;;;;;373.67;143.40;;;;;;;;;;5054031;28;20215;-52
2024/01/20 00:02:55;;;;;;;391.20;150.73;;;;;;;;;;5060611;28;20684;-52
2024/01/20 00:05:21;;;;;;;350.40;135.53;;;;;;;;;;5066882;28;20222;-53
2024/01/20 00:07:47;;;;;;;412.60;161.57;;;;;;;;;;5055722;28;20190;-52
2024/01/20 00:10:12;;;;;;;401.00;159.20;;;;;;;;;;5052212;28;20230;-51
2024/01/20 00:12:39;;;;;;;414.10;170.77;;;;;;;;;;5052255;28;20211;-52
2024/01/20 00:15:08;;;;;;;363.30;140.13;;;;;;;;;;5053385;28;20219;-51
2024/01/20 00:17:35;;;;;;;399.97;159.10;;;;;;;;;;5060667;28;20222;-51
2024/01/20 00:20:01;;;;;;;383.30;146.87;;;;;;;;;;5056013;28;20224;-51
2024/01/20 00:22:27;;;;;;;358.40;136.40;;;;;;;;;;5049459;28;20189;-52
2024/01/20 00:24:53;;;;;;;370.50;146.13;;;;;;;;;;5052788;28;22110;-51
2024/01/20 00:27:19;;;;;;;398.83;158.63;;;;;;;;;;5046709;28;20215;-52
2024/01/20 00:29:45;;;;;;;416.63;166.33;;;;;;;;;;5050690;28;20549;-52
2024/01/20 00:32:11;;;;;;;370.00;147.87;;;;;;;;;;5054810;28;20189;-52
2024/01/20 00:34:37;;;;;;;366.67;141.70;;;;;;;;;;5054061;28;20211;-52
2024/01/20 00:37:06;;;;;;;349.07;134.17;;;;;;;;;;5045970;28;20489;-53
2024/01/20 00:39:32;;;;;;;396.23;159.70;;;;;;;;;;5043113;28;20215;-51
2024/01/20 00:41:58;;;;;;;390.70;154.10;;;;;;;;;;5048700;28;20218;-52
2024/01/20 00:44:24;;;;;;;433.77;172.03;;;;;;;;;;5044153;28;20210;-51
2024/01/20 00:46:50;;;;;;;396.53;161.07;;;;;;;;;;5049577;28;20202;-53
2024/01/20 00:49:16;;;;;;;409.10;163.43;;;;;;;;;;5052387;28;20293;-52
2024/01/20 00:51:42;;;;;;;407.20;156.87;;;;;;;;;;5051539;28;20662;-53
2024/01/20 00:54:08;;;;;;;346.17;133.93;;;;;;;;;;5052505;28;20249;-52
2024/01/20 00:56:34;;;;;;;405.77;158.10;;;;;;;;;;5054235;28;20715;-53
2024/01/20 00:59:00;;;;;;;372.70;142.90;;;;;;;;;;5054878;28;20195;-52
2024/01/20 01:01:26;;;;;;;360.30;138.87;;;;;;;;;;5054146;28;20206;-52
2024/01/20 01:03:52;;;;;;;365.00;143.37;;;;;;;;;;5063413;28;20594;-52
2024/01/20 01:06:18;;;;;;;352.27;136.70;;;;;;;;;;5058301;28;20682;-51
2024/01/20 01:08:44;;;;;;;393.63;156.53;;;;;;;;;;5056779;28;20226;-53
2024/01/20 01:11:10;;;;;;;373.23;145.33;;;;;;;;;;5046333;28;20187;-52
2024/01/20 01:13:37;;;;;;;389.93;154.67;;;;;;;;;;5057426;28;20637;-52
2024/01/20 01:16:04;;;;;;;375.90;145.87;;;;;;;;;;5057462;28;20321;-52
2024/01/20 01:18:30;;;;;;;372.37;141.17;;;;;;;;;;5055106;28;20253;-52
2024/01/20 01:20:56;;;;;;;410.83;160.00;;;;;;;;;;5045239;28;20613;-53
2024/01/20 01:23:22;;;;;;;402.87;155.70;;;;;;;;;;5056794;28;20215;-52
2024/01/20 01:25:49;;;;;;;391.20;152.67;;;;;;;;;;5047533;28;21066;-52
2024/01/20 01:28:15;;;;;;;339.80;131.37;;;;;;;;;;5053047;28;20640;-51
2024/01/20 01:30:41;;;;;;;339.27;131.97;;;;;;;;;;5052002;28;20364;-51
2024/01/20 01:33:07;;;;;;;361.40;140.33;;;;;;;;;;5053362;28;21210;-52
2024/01/20 01:35:33;;;;;;;370.13;144.53;;;;;;;;;;5051412;28;20203;-52
2024/01/20 01:37:59;;;;;;;416.60;163.47;;;;;;;;;;5049045;28;20344;-52
2024/01/20 01:40:25;;;;;;;371.20;144.87;;;;;;;;;;5050563;28;20305;-52
2024/01/20 01:42:56;;;;;;;342.00;131.10;;;;;;;;;;5050213;28;20226;-52
2024/01/20 01:45:23;;;;;;;373.07;145.37;;;;;;;;;;5050180;28;20214;-52
2024/01/20 01:47:49;;;;;;;427.23;170.00;;;;;;;;;;5063022;28;20232;-52
2024/01/20 01:50:15;;;;;;;400.00;157.77;;;;;;;;;;5057587;28;20469;-52
2024/01/20 01:52:42;;;;;;;388.17;152.80;;;;;;;;;;5054492;28;20243;-52
2024/01/20 01:55:08;;;;;;;375.03;145.77;;;;;;;;;;5060396;28;20238;-52
2024/01/20 01:57:35;;;;;;;363.07;143.10;;;;;;;;;;5057901;28;20693;-52
2024/01/20 02:00:02;;;;;;;365.37;138.53;;;;;;;;;;5057862;28;20219;-52
2024/01/20 02:02:28;;;;;;;393.17;152.03;;;;;;;;;;5053584;28;20214;-51
2024/01/20 02:04:54;;;;;;;411.40;166.90;;;;;;;;;;5049520;28;20210;-53
2024/01/20 02:07:20;;;;;;;366.17;144.03;;;;;;;;;;5046648;28;20461;-52
2024/01/20 02:09:46;;;;;;;381.53;151.83;;;;;;;;;;5046981;28;20350;-52
2024/01/20 02:12:14;;;;;;;357.43;139.80;;;;;;;;;;5047985;28;20305;-51
2024/01/20 02:14:41;;;;;;;388.90;151.57;;;;;;;;;;5060385;28;20635;-52
2024/01/20 02:17:07;;;;;;;371.00;144.57;;;;;;;;;;5051734;28;20620;-51
2024/01/20 02:19:36;;;;;;;394.80;156.23;;;;;;;;;;5056831;28;20358;-52
2024/01/20 02:22:15;;;;;;;377.07;147.03;;;-0.50;99.90;;;;;;5060343;28;20226;-51
2024/01/20 02:24:47;;;;;;;360.93;140.57;;;-0.40;99.90;;;;;;5060266;28;20301;-52
2024/01/20 02:27:12;;;;;;;371.57;143.37;;;-0.40;99.90;;;;;;5052574;28;20220;-52
2024/01/20 02:29:39;;;;;;;424.23;171.27;;;-0.40;99.90;;;;;;5061681;28;20677;-52
2024/01/20 02:32:05;;;;;;;403.30;160.03;;;-0.30;99.90;;;;;;5057796;28;20867;-52
2024/01/20 02:34:31;;;;;;;364.93;143.10;;;;;;;;;;5056086;28;20699;-52
2024/01/20 02:36:57;;;;;;;417.67;169.47;;;;;;;;;;5048456;28;20223;-52
2024/01/20 02:39:23;;;;;;;385.17;149.90;;;;;;;;;;5048401;28;20226;-52
2024/01/20 02:41:49;;;;;;;394.40;155.27;;;;;;;;;;5055200;28;20226;-52
2024/01/20 02:44:15;;;;;;;385.90;152.50;;;;;;;;;;5057370;28;20201;-52
2024/01/20 02:46:41;;;;;;;380.23;148.40;;;;;;;;;;5052589;28;20190;-52
2024/01/20 02:49:07;;;;;;;347.73;138.00;;;;;;;;;;5054198;28;20715;-52
2024/01/20 02:51:33;;;;;;;366.20;144.00;;;;;;;;;;5053001;28;20214;-52
2024/01/20 02:53:59;;;;;;;392.47;155.57;;;;;;;;;;5056321;28;20214;-52
2024/01/20 02:56:25;;;;;;;412.43;162.27;;;;;;;;;;5050797;28;20693;-52
2024/01/20 02:58:51;;;;;;;375.63;141.60;;;;;;;;;;5049828;28;20218;-52
2024/01/20 03:01:17;;;;;;;363.13;140.43;;;;;;;;;;5051676;28;20518;-52
2024/01/20 03:03:44;;;;;;;363.07;138.30;;;;;;;;;;5061859;28;20408;-52
2024/01/20 03:06:11;;;;;;;364.73;141.73;;;;;;;;;;5050787;28;20309;-52
2024/01/20 03:08:36;;;;;;;350.30;134.27;;;;;;;;;;5056972;28;20280;-52
2024/01/20 03:11:02;;;;;;;374.73;143.43;;;-0.80;99.90;;;;;;5063838;28;20591;-52
2024/01/20 03:13:28;;;;;;;370.73;142.17;;;;;;;;;;5051076;28;20698;-52
2024/01/20 03:15:54;;;;;;;411.23;162.47;;;;;;;;;;5061105;28;20218;-51
2024/01/20 03:18:20;;;;;;;354.97;136.47;;;;;;;;;;5054644;28;20779;-51
2024/01/20 03:20:46;;;;;;;353.73;134.67;;;;;;;;;;5056451;28;20219;-52
2024/01/20 03:23:12;;;;;;;341.20;131.93;;;;;;;;;;5056527;28;20188;-52
2024/01/20 03:25:38;;;;;;;408.77;159.13;;;;;;;;;;5049630;28;20210;-52
2024/01/20 03:28:04;;;;;;;385.20;148.40;;;;;;;;;;5051325;28;20219;-52
2024/01/20 03:30:30;;;;;;;381.57;148.00;;;;;;;;;;5047173;28;20211;-52
2024/01/20 03:32:56;;;;;;;424.53;167.23;;;;;;;;;;5058535;28;20209;-52
2024/01/20 03:35:22;;;;;;;346.60;134.27;;;;;;;;;;5057946;28;20586;-53
2024/01/20 03:37:48;;;;;;;354.13;135.97;;;;;;;;;;5049885;28;20234;-51
2024/01/20 03:40:14;;;;;;;389.97;151.13;;;;;;;;;;5054839;28;20739;-54
2024/01/20 03:42:40;;;;;;;426.70;166.57;;;;;;;;;;5055097;28;21461;-51
2024/01/20 03:45:06;;;;;;;405.27;157.67;;;;;;;;;;5060995;28;20665;-51
2024/01/20 03:47:32;;;;;;;382.60;147.77;;;;;;;;;;5055813;28;20253;-51
2024/01/20 03:49:58;;;;;;;369.80;142.63;;;;;;;;;;5051821;28;20210;-51
2024/01/20 03:52:24;;;;;;;410.27;161.33;;;;;;;;;;5034939;28;20680;-52
2024/01/20 03:54:50;;;;;;;389.50;150.67;;;;;;;;;;5051125;28;20207;-51
2024/01/20 03:57:16;;;;;;;367.07;143.97;;;;;;;;;;5055393;28;20220;-52
2024/01/20 03:59:42;;;;;;;362.83;142.10;;;;;;;;;;5058039;28;20270;-51
2024/01/20 04:02:08;;;;;;;390.30;154.00;;;;;;;;;;5052259;28;20850;-52
2024/01/20 04:04:36;;;;;;;340.70;132.53;;;-0.90;99.90;;;;;;5058750;28;20171;-51
2024/01/20 04:07:02;;;;;;;398.47;161.67;;;;;;;;;;5046367;28;20666;-51
2024/01/20 04:09:28;;;;;;;364.40;141.80;;;;;;;;;;5056575;28;20221;-52
2024/01/20 04:11:54;;;;;;;430.33;172.10;;;;;;;;;;5049001;28;20220;-52
2024/01/20 04:14:20;;;;;;;355.83;136.80;;;;;;;;;;5058338;28;20298;-51
2024/01/20 04:16:46;;;;;;;386.97;150.57;;;;;;;;;;5060782;28;20178;-52
2024/01/20 04:19:12;;;;;;;383.20;149.80;;;;;;;;;;5049866;28;20531;-52
2024/01/20 04:21:39;;;;;;;390.77;155.87;;;;;;;;;;5050176;28;20223;-52
2024/01/20 04:24:05;;;;;;;393.63;156.70;;;;;;;;;;5057227;28;20230;-52
2024/01/20 04:26:31;;;;;;;408.93;163.73;;;;;;;;;;5051657;28;20687;-52
2024/01/20 04:28:57;;;;;;;390.40;155.33;;;;;;;;;;5056783;28;20237;-51
2024/01/20 04:31:23;;;;;;;356.57;140.10;;;;;;;;;;5056449;28;20210;-52
2024/01/20 04:33:49;;;;;;;357.50;140.90;;;;;;;;;;5052439;28;20709;-52
2024/01/20 04:36:15;;;;;;;358.03;141.83;;;;;;;;;;5050732;28;20230;-52
2024/01/20 04:38:41;;;;;;;383.97;147.83;;;;;;;;;;5051776;28;20485;-52
2024/01/20 04:41:07;;;;;;;396.53;155.53;;;;;;;;;;5049239;28;20179;-52
2024/01/20 04:43:33;;;;;;;350.83;134.00;;;;;;;;;;5059715;28;20214;-52
2024/01/20 04:45:59;;;;;;;391.17;153.63;;;;;;;;;;5047243;28;20214;-52
2024/01/20 04:48:25;;;;;;;381.47;147.50;;;;;;;;;;5055925;28;20226;-52
2024/01/20 04:50:51;;;;;;;356.27;137.53;;;;;;;;;;5053261;28;20294;-52
2024/01/20 04:53:17;;;;;;;358.87;139.97;;;;;;;;;;5051894;28;20725;-52
2024/01/20 04:55:43;;;;;;;389.90;153.93;;;;;;;;;;5049108;28;20351;-51
2024/01/20 04:58:09;;;;;;;367.23;145.07;;;;;;;;;;5058256;28;20569;-50
2024/01/20 05:00:35;;;;;;;358.93;139.90;;;-0.50;99.90;;;;;;5049582;28;20214;-51
2024/01/20 05:03:01;;;;;;;399.63;158.43;;;;;;;;;;5052749;28;20295;-51
2024/01/20 05:05:27;;;;;;;385.60;150.07;;;;;;;;;;5052930;28;20240;-52
2024/01/20 05:07:53;;;;;;;374.20;144.60;;;;;;;;;;5045843;28;20210;-50
2024/01/20 05:10:19;;;;;;;366.93;141.43;;;;;;;;;;5057441;28;20222;-51
2024/01/20 05:12:45;;;;;;;381.83;146.77;;;;;;;;;;5051645;28;20213;-52
2024/01/20 05:15:12;;;;;;;405.80;158.37;;;;;;;;;;5050988;28;20232;-51
2024/01/20 05:17:38;;;;;;;343.93;133.77;;;;;;;;;;5057423;28;20649;-51
2024/01/20 05:20:05;;;;;;;368.20;144.13;;;;;;;;;;5055913;28;20211;-51
2024/01/20 05:22:31;;;;;;;378.37;145.73;;;;;;;;;;5049445;28;20219;-51
2024/01/20 05:24:57;;;;;;;378.13;146.03;;;;;;;;;;5052143;28;20247;-51
2024/01/20 05:27:23;;;;;;;354.70;136.57;;;;;;;;;;5052986;28;20634;-51
2024/01/20 05:29:49;;;;;;;350.40;134.80;;;;;;;;;;5057166;28;20226;-51
2024/01/20 05:32:15;;;;;;;387.40;149.10;;;-0.10;99.90;;;;;;5053203;28;20885;-50
2024/01/20 05:34:41;;;;;;;378.13;143.60;;;;;;;;;;5058474;28;20566;-50
2024/01/20 05:37:07;;;;;;;392.43;153.20;;;;;;;;;;5046796;28;20218;-51
2024/01/20 05:39:34;;;;;;;372.50;143.90;;;-0.30;99.90;;;;;;5054715;28;20573;-51
2024/01/20 05:42:00;;;;;;;414.20;166.97;;;;;;;;;;5048361;28;20211;-51
2024/01/20 05:44:26;;;;;;;362.57;139.20;;;-0.10;99.90;;;;;;5055365;28;20233;-51
2024/01/20 05:46:52;;;;;;;364.33;142.23;;;-0.10;99.90;;;;;;5047512;28;20203;-50
2024/01/20 05:49:18;;;;;;;352.97;139.40;;;;;;;;;;5055456;28;20547;-51
2024/01/20 05:51:44;;;;;;;405.97;156.90;;;;;;;;;;5041019;28;20248;-52
2024/01/20 05:54:10;;;;;;;402.30;155.87;;;;;;;;;;5050445;28;20384;-51
2024/01/20 05:56:36;;;;;;;370.40;143.40;;;;;;;;;;5045478;28;20770;-51
2024/01/20 05:59:02;;;;;;;387.53;154.93;;;;;;;;;;5050160;28;20300;-51
2024/01/20 06:01:28;;;;;;;388.90;151.37;;;;;;;;;;5048098;28;20190;-51
2024/01/20 06:03:54;;;;;;;356.57;137.93;;;;;;;;;;5054353;28;20318;-52
2024/01/20 06:06:19;;;;;;;387.53;152.00;;;-0.30;99.90;;;;;;5055983;28;20725;-51
2024/01/20 06:08:46;;;;;;;375.83;144.90;;;;;;;;;;5051132;28;20306;-51
2024/01/20 06:11:11;;;;;;;398.97;157.63;;;-0.10;99.90;;;;;;5050376;28;20214;-51
2024/01/20 06:13:37;;;;;;;398.33;155.10;;;;;;;;;;5037809;28;20644;-51
2024/01/20 06:16:05;;;;;;;394.60;153.10;;;-0.30;99.90;;;;;;5053096;28;20214;-52
2024/01/20 06:18:31;;;;;;;357.37;142.97;;;;;;;;;;5053009;28;20226;-51
2024/01/20 06:20:59;;;;;;;392.10;153.37;;;;;;;;;;5054576;28;20681;-51
2024/01/20 06:23:25;;;;;;;360.27;138.60;;;;;;;;;;5052161;28;20223;-50
2024/01/20 06:25:51;;;;;;;401.63;155.63;;;;;;;;;;5054982;28;20285;-51
2024/01/20 06:28:17;;;;;;;396.23;154.70;;;;;;;;;;5050258;28;20716;-51
2024/01/20 06:30:46;;;;;;;402.30;156.60;;;0.70;99.90;;;;;;5055765;28;20735;-51
2024/01/20 06:33:12;;;;;;;377.90;148.70;;;;;;;;;;5052312;28;20756;-51
2024/01/20 06:35:38;;;;;;;364.27;139.77;;;;;;;;;;5059269;28;20214;-52
2024/01/20 06:38:04;;;;;;;410.87;160.93;;;-0.40;99.90;;;;;;5049520;28;20407;-51
2024/01/20 06:40:30;;;;;;;348.70;134.43;;;;;;;;;;5060319;28;20591;-50
2024/01/20 06:42:56;;;;;;;387.97;151.23;;;;;;;;;;5054738;28;20222;-50
2024/01/20 06:45:22;;;;;;;402.03;156.87;;;;;;;;;;5052813;28;20676;-52
2024/01/20 06:47:47;;;;;;;390.17;151.80;;;;;;;;;;5055628;28;20268;-52
2024/01/20 06:50:15;;;;;;;490.13;211.63;;;;;;;;;;5049908;28;20203;-51
2024/01/20 06:52:41;;;;;;;408.67;162.07;;;;;;;;;;5045587;28;20184;-52
2024/01/20 06:55:06;;;;;;;376.00;151.70;;;-0.40;99.90;;;;;;5050747;28;20585;-52
2024/01/20 06:57:32;;;;;;;383.43;150.77;;;;;;;;;;5059872;28;20222;-52
2024/01/20 06:59:58;;;;;;;374.73;146.07;;;;;;;;;;5053971;28;20218;-52
2024/01/20 07:02:24;;;;;;;370.70;144.27;;;;;;;;;;5054983;28;20217;-52
2024/01/20 07:04:50;;;;;;;404.00;157.43;;;;;;;;;;5052871;28;20194;-51
2024/01/20 07:07:17;;;;;;;369.60;140.60;;;;;;;;;;5060547;28;20245;-52
2024/01/20 07:09:43;;;;;;;340.77;131.07;;;;;;;;;;5053811;28;20968;-52
2024/01/20 07:12:08;;;;;;;389.00;151.83;;;-0.20;99.90;;;;;;5044625;28;20329;-52
2024/01/20 07:14:35;;;;;;;352.70;136.40;;;-0.10;99.90;;;;;;5047646;28;20211;-51
2024/01/20 07:17:01;;;;;;;399.67;158.97;;;;;;;;;;5050096;28;20531;-51
2024/01/20 07:19:27;;;;;;;392.67;157.33;;;;;;;;;;5026368;28;20188;-51
2024/01/20 07:21:53;;;;;;;408.93;157.43;;;;;;;;;;5039367;28;20211;-52
2024/01/20 07:24:19;;;;;;;377.77;146.57;;;;;;;;;;5033262;28;20572;-52
2024/01/20 07:29:38;;;;;;;373.40;135.97;;;;;;;;;;5094792;27;20629;-51
2024/01/20 07:32:04;;;;;;;451.43;183.10;;;;;;;;;;5064706;28;20185;-51
2024/01/20 07:34:30;;;;;;;357.60;138.70;;;;;;;;;;5065673;28;20273;-52
2024/01/20 07:36:57;;;;;;;392.47;155.40;;;;;;;;;;5063384;28;20348;-50
2024/01/20 07:39:22;;;;;;;375.73;145.67;;;;;;;;;;5076354;28;20233;-51
2024/01/20 07:41:48;;;;;;;347.50;134.17;;;;;;;;;;5082615;28;20248;-52
2024/01/20 07:44:14;;;;;;;356.50;147.00;;;;;;;;;;5083281;28;20189;-52
2024/01/20 07:46:40;;;;;;;339.47;137.23;;;;;;;;;;5081403;28;20685;-51
2024/01/20 07:49:06;;;;;;;362.83;152.23;;;0.10;99.90;;;;;;5075150;28;20226;-52
2024/01/20 07:51:32;;;;;;;346.93;140.77;;;;;;;;;;5076206;28;20207;-51
2024/01/20 07:54:38;;;;;;;327.83;131.07;;;0.00;99.90;;;;;;5080942;28;20206;-51
2024/01/20 07:57:03;;;;;;;376.03;162.50;;;0.00;99.90;;;;;;5084526;28;20212;-52
2024/01/20 07:59:29;;;;;;;363.00;153.17;;;;;;;;;;5072158;27;20214;-52
2024/01/20 08:01:55;;;;;;;353.17;144.53;;;;;;;;;;5072819;28;20317;-51
2024/01/20 08:04:21;;;;;;;402.50;173.23;;;0.00;99.90;;;;;;5064040;28;20270;-50
2024/01/20 08:06:47;;;;;;;375.17;157.97;;;;;;;;;;5062491;28;20217;-51
2024/01/20 08:09:13;;;;;;;338.00;136.77;;;;;;;;;;5077080;28;20249;-51
2024/01/20 08:11:39;;;;;;;347.60;140.10;;;;;;;;;;5079734;28;20221;-50
2024/01/20 08:14:05;;;;;;;398.50;170.57;;;;;;;;;;5074958;28;20182;-49
2024/01/20 08:16:31;;;;;;;362.33;148.63;;;;;;;;;;5083568;28;20660;-49
2024/01/20 08:18:57;;;;;;;328.23;131.97;;;;;;;;;;5071383;28;20206;-48
2024/01/20 08:21:23;;;;;;;386.77;163.77;;;0.60;99.90;;;;;;5060753;28;20218;-49
2024/01/20 08:23:49;;;;;;;340.47;134.70;;;;;;;;;;5071074;28;20213;-49
2024/01/20 08:26:15;;;;;;;335.93;142.40;;;;;;;;;;5088110;28;20188;-51
2024/01/20 08:28:41;;;;;;;335.43;134.63;;;;;;;;;;5070441;28;20202;-51
2024/01/20 08:31:07;;;;;;;358.73;144.93;;;;;;;;;;5073688;28;20217;-51
2024/01/20 08:33:33;;;;;;;338.20;138.97;;;;;;;;;;5069102;28;20210;-51
2024/01/20 08:35:59;;;;;;;333.40;136.60;;;;;;;;;;5067877;28;20203;-50
2024/01/20 08:38:25;;;;;;;355.70;144.97;;;;;;;;;;5066896;28;20219;-51
2024/01/20 08:40:51;;;;;;;377.20;157.53;;;;;;;;;;5056987;28;20237;-51
2024/01/20 08:43:17;;;;;;;370.10;154.50;;;;;;;;;;5060768;28;20276;-51
2024/01/20 08:45:43;;;;;;;362.17;149.50;;;;;;;;;;5058107;28;20296;-50
2024/01/20 08:48:09;;;;;;;364.03;150.47;;;;;;;;;;5048462;28;20346;-51
2024/01/20 08:50:35;;;;;;;335.80;136.10;;;;;;;;;;5059755;28;20213;-50
2024/01/20 08:53:01;;;;;;;351.33;145.57;;;0.70;99.90;;;;;;5060438;28;20259;-50
2024/01/20 08:55:27;;;;;;;365.00;150.77;;;;;;;;;;5062009;28;20254;-51
2024/01/20 08:57:53;;;;;;;369.13;151.20;;;;;;;;;;5061005;28;20222;-51
2024/01/20 09:00:19;;;;;;;386.37;159.73;;;;;;;;;;5049832;28;20218;-51
2024/01/20 09:02:45;;;;;;;358.47;143.50;;;;;;;;;;5066114;28;20514;-51
2024/01/20 09:05:12;;;;;;;352.03;145.07;;;;;;;;;;5051968;28;20178;-51
2024/01/20 09:07:38;;;;;;;355.77;143.20;;;;;;;;;;5060068;28;25415;-51
2024/01/20 09:10:04;;;;;;;355.90;142.63;;;;;;;;;;5056858;28;21287;-51
2024/01/20 09:12:30;;;;;;;393.27;156.30;;;1.60;99.90;;;;;;5059714;28;20422;-51
2024/01/20 09:14:56;;;;;;;362.87;139.57;;;1.60;99.90;;;;;;5051348;28;20689;-51
2024/01/20 09:17:22;;;;;;;399.27;164.90;;;;;;;;;;5057996;28;20219;-51
2024/01/20 09:19:48;;;;;;;374.07;154.37;;;;;;;;;;5056810;28;20205;-51
2024/01/20 09:22:14;;;;;;;350.43;141.00;;;;;;;;;;5057230;28;20321;-51
2024/01/20 09:24:40;;;;;;;355.67;148.00;;;;;;;;;;5058603;28;20215;-51
2024/01/20 09:27:06;;;;;;;402.03;164.40;;;;;;;;;;5048260;28;20378;-51
2024/01/20 09:30:09;;;;;;;325.83;127.70;;;2.30;99.90;;;;;;5045731;28;20230;-51
2024/01/20 09:32:35;;;;;;;390.07;159.47;;;;;;;;;;5051020;28;20722;-51
2024/01/20 09:35:02;;;;;;;379.80;153.73;;;;;;;;;;5058028;28;20206;-51
2024/01/20 09:37:29;;;;;;;370.67;147.70;;;;;;;;;;5054868;28;20197;-51
2024/01/20 09:39:55;;;;;;;425.63;177.23;;;;;;;;;;5044953;28;20214;-51
2024/01/20 09:42:21;;;;;;;368.13;151.33;;;2.90;99.90;;;;;;5039458;28;21557;-51
2024/01/20 09:44:47;;;;;;;404.27;173.60;;;1.70;99.90;;;;;;5033658;28;20772;-51
2024/01/20 09:47:13;;;;;;;359.47;145.90;;;;;;;;;;5054883;28;20216;-51
2024/01/20 09:49:39;;;;;;;359.80;142.03;;;;;;;;;;5055434;28;20585;-51
2024/01/20 09:52:09;;;;;;;419.43;173.07;;;1.50;99.90;;;;;;5051084;28;20288;-51
2024/01/20 09:54:44;;;;;;;370.63;145.33;;;1.70;99.90;;;;;;5034554;28;20219;-51
2024/01/20 09:57:11;;;;;;;407.60;168.90;;;;;;;;;;5032667;28;20249;-51
2024/01/20 09:59:41;;;;;;;378.40;152.87;;;1.60;99.90;;;;;;5043312;28;20198;-51
2024/01/20 10:02:10;;;;;;;419.40;181.00;;;1.00;99.90;;;;;;5044944;28;20262;-51
2024/01/20 10:04:41;;;;;;;368.17;146.60;;;1.80;99.90;;;;;;5046901;28;20183;-51
2024/01/20 10:07:07;;;;;;;353.13;141.47;;;;;;;;;;5054310;28;20230;-51
2024/01/20 10:09:33;;;;;;;403.83;164.27;;;;;;;;;;5052232;28;20739;-50
2024/01/20 10:11:59;;;;;;;403.10;164.27;;;;;;;;;;5053178;28;20222;-51
2024/01/20 10:14:25;;;;;;;385.00;154.10;;;;;;;;;;5040784;28;20261;-51
2024/01/20 10:16:51;;;;;;;417.10;172.83;;;;;;;;;;5033809;28;20326;-51
2024/01/20 10:19:17;;;;;;;379.37;153.50;;;1.90;99.90;;;;;;5058048;28;21477;-51
2024/01/20 10:21:43;;;;;;;384.23;154.00;;;;;;;;;;5032824;28;21778;-51
2024/01/20 10:24:09;;;;;;;384.93;149.97;;;;;;;;;;5031910;28;20276;-51
2024/01/20 10:26:44;;;;;;;455.03;189.93;;;2.00;99.90;;;;;;5034473;28;20238;-51
2024/01/20 10:29:10;;;;;;;412.40;168.93;;;;;;;;;;5027773;28;20197;-51
2024/01/20 10:31:36;;;;;;;391.40;151.17;;;;;;;;;;5033410;28;20187;-51
2024/01/20 10:34:03;;;;;;;404.50;159.03;;;2.10;99.90;;;;;;5048467;28;20275;-51
2024/01/20 10:36:30;;;;;;;382.17;153.83;;;2.00;99.90;;;;;;5048025;28;20249;-51
2024/01/20 10:38:59;;;;;;;377.73;144.10;;;2.10;99.90;;;;;;5051028;28;20290;-51
2024/01/20 10:41:25;;;;;;;392.13;156.50;;;;;;;;;;5046009;28;20685;-51
2024/01/20 10:43:58;;;;;;;425.30;168.37;;;2.20;99.90;;;;;;5037402;28;20198;-51
2024/01/20 10:46:29;;;;;;;405.17;164.83;;;2.20;99.90;;;;;;5038975;28;20387;-51
2024/01/20 10:48:59;;;;;;;408.07;165.33;;;2.20;99.90;;;;;;5043075;28;20309;-51
2024/01/20 10:51:29;;;;;;;406.70;163.43;;;2.20;99.90;;;;;;5045250;28;20298;-51
2024/01/20 10:53:57;;;;;;;420.90;172.90;;;2.30;99.90;;;;;;5040413;28;20760;-51
2024/01/20 10:56:26;;;;;;;381.80;149.13;;;2.30;99.90;;;;;;5047196;28;20536;-51
2024/01/20 10:59:12;;;;;;;360.47;137.23;;;2.10;99.90;;;;;;5045072;28;20203;-51
2024/01/20 11:01:40;;;;;;;434.23;175.17;;;2.10;99.90;;;;;;5040718;28;20231;-51
2024/01/20 11:04:07;;;;;;;400.63;161.10;;;2.20;99.90;;;;;;5044108;28;22310;-51
2024/01/20 11:06:37;;;;;;;419.47;164.90;;;2.20;99.90;;;;;;5040876;28;20272;-51
2024/01/20 11:09:04;;;;;;;423.17;168.13;;;;;;;;;;5041897;28;20303;-52
2024/01/20 11:11:34;;;;;;;431.03;173.83;;;2.30;99.90;;;;;;5044657;28;20226;-52
2024/01/20 11:14:01;;;;;;;406.70;162.23;;;;;;;;;;5043375;28;20176;-51
2024/01/20 11:16:32;;;;;;;445.57;184.47;;;2.40;99.90;;;;;;5043235;28;20909;-52
2024/01/20 11:19:08;;;;;;;408.10;164.30;;;2.30;99.90;;;;;;5044734;28;20642;-52
2024/01/20 11:21:34;;;;;;;423.13;170.30;;;;;;;;;;5036934;28;20364;-52
2024/01/20 11:24:00;;;;;;;395.33;155.87;;;2.30;99.90;;;;;;5039105;28;20704;-53
2024/01/20 11:26:36;;;;;;;388.43;157.97;;;2.40;99.90;;;;;;5047165;28;20662;-51
2024/01/20 11:29:05;;;;;;;420.47;171.23;;;2.60;99.90;;;;;;5045911;28;20299;-52
2024/01/20 11:31:31;;;;;;;426.63;173.67;;;;;;;;;;5042891;28;20190;-51
2024/01/20 11:34:04;;;;;;;385.53;146.53;;;1.10;99.90;;;;;;5046812;28;20310;-51
2024/01/20 11:36:32;;;;;;;397.13;155.43;;;2.60;99.90;;;;;;5040671;28;23033;-52
2024/01/20 11:38:59;;;;;;;369.07;143.00;;;2.60;99.90;;;;;;5041292;28;20218;-52
2024/01/20 11:41:25;;;;;;;425.77;168.93;;;;;;;;;;5032562;28;20315;-51
2024/01/20 11:43:51;;;;;;;417.63;167.80;;;;;;;;;;5043624;28;20259;-52
2024/01/20 11:46:18;;;;;;;389.67;150.33;;;;;;;;;;5043813;28;20638;-49
2024/01/20 11:48:47;;;;;;;419.73;164.37;;;3.00;99.90;;;;;;5044643;28;20218;-51
2024/01/20 11:51:13;;;;;;;401.47;152.87;;;2.90;99.30;;;;;;5045473;28;20219;-50
2024/01/20 11:53:38;;;;;;;436.67;177.63;;;;;;;;;;5047443;28;20214;-50
2024/01/20 11:56:05;;;;;;;416.93;164.73;;;;;;;;;;5052533;28;20210;-50
2024/01/20 11:58:31;;;;;;;427.57;169.67;;;;;;;;;;5051651;28;21189;-51
2024/01/20 12:00:58;;;;;;;418.43;164.47;;;3.20;98.40;;;;;;5048916;28;21289;-51
2024/01/20 12:03:28;;;;;;;410.10;166.63;;;3.30;98.30;;;;;;5048390;28;20313;-52
2024/01/20 12:05:54;;;;;;;404.13;156.67;;;;;;;;;;5055284;28;20222;-52
2024/01/20 12:08:20;;;;;;;426.70;172.33;;;3.40;98.80;;;;;;5044851;28;20291;-51
2024/01/20 12:10:46;;;;;;;430.40;174.07;;;;;;;;;;5050890;28;20673;-52
2024/01/20 12:13:13;;;;;;;413.50;164.83;;;3.40;98.00;;;;;;5056726;28;20227;-52
2024/01/20 12:15:39;;;;;;;392.53;152.53;;;3.40;97.50;;;;;;5050080;28;20210;-51
2024/01/20 12:18:05;;;;;;;416.67;164.67;;;;;;;;;;5055834;28;20700;-51
2024/01/20 12:20:31;;;;;;;425.27;167.97;;;;;;;;;;5056046;28;20297;-50
2024/01/20 12:23:00;;;;;;;384.47;149.60;;;;;;;;;;5055070;28;20691;-50
2024/01/20 12:25:32;;;;;;;463.67;192.87;;;3.60;99.90;;;;;;5051367;28;21015;-51
2024/01/20 12:27:58;;;;;;;410.03;161.63;;;;;;;;;;5052658;28;20226;-51
2024/01/20 12:30:24;;;;;;;410.00;162.37;;;;;;;;;;5054443;28;20998;-51
2024/01/20 12:32:50;;;;;;;370.00;146.40;;;;;;;;;;5056376;28;20214;-51
2024/01/20 12:35:18;;;;;;;393.67;156.50;;;3.90;99.90;;;;;;5056199;28;20243;-51
2024/01/20 12:37:44;;;;;;;407.53;161.97;;;;;;;;;;5053671;28;20717;-50
2024/01/20 12:40:10;;;;;;;402.47;157.03;;;;;;;;;;5055030;28;20214;-51
2024/01/20 12:42:37;;;;;;;404.27;159.00;;;;;;;;;;5058245;28;20720;-51
2024/01/20 12:45:03;;;;;;;431.47;171.00;;;;;;;;;;5048441;28;23221;-51
2024/01/20 12:47:30;;;;;;;446.07;173.93;;;;;;;;;;5054058;28;20293;-51
2024/01/20 12:49:56;;;;;;;400.50;153.80;;;;;;;;;;5056213;28;20640;-51
2024/01/20 12:52:22;;;;;;;418.13;166.10;;;;;;;;;;5052532;28;20210;-51
2024/01/20 12:54:48;;;;;;;432.73;171.53;;;;;;;;;;5055257;28;20222;-51
2024/01/20 12:57:14;;;;;;;396.20;157.17;;;;;;;;;;5059132;28;20222;-51
2024/01/20 12:59:39;;;;;;;409.53;163.17;;;;;;;;;;5054865;28;21762;-52
2024/01/20 13:02:05;;;;;;;419.83;165.27;;;3.00;99.10;;;;;;5054850;28;20190;-51
2024/01/20 13:04:31;;;;;;;419.63;166.93;;;;;;;;;;5052204;28;20198;-51
2024/01/20 13:06:57;;;;;;;440.10;176.57;;;;;;;;;;5056797;28;20226;-51
2024/01/20 13:09:23;;;;;;;430.30;170.13;;;;;;;;;;5051242;28;20229;-52
2024/01/20 13:11:49;;;;;;;430.67;173.57;;;;;;;;;;5050215;28;20222;-51
2024/01/20 13:14:15;;;;;;;402.07;158.77;;;;;;;;;;5050322;28;20222;-51
2024/01/20 13:16:42;;;;;;;417.20;166.27;;;3.10;99.90;;;;;;5055952;28;20199;-51
2024/01/20 13:19:08;;;;;;;406.43;159.17;;;;;;;;;;5045095;28;20650;-51
2024/01/20 13:21:34;;;;;;;460.50;179.20;;;;;;;;;;5051850;28;21061;-51
2024/01/20 13:24:00;;;;;;;435.10;174.97;;;;;;;;;;5049148;28;20220;-52
2024/01/20 13:26:26;;;;;;;435.10;173.47;;;;;;;;;;5053181;28;20586;-52
2024/01/20 13:28:52;;;;;;;417.37;163.50;;;;;;;;;;5052651;28;20246;-51